createdAt,value
2018-09-04T00:00:29.635Z,14.22
2018-09-04T00:01:29.355Z,14.12
2018-09-04T00:02:29.604Z,13.93
2018-09-04T00:03:29.603Z,14.03
2018-09-04T00:04:29.317Z,14.03
2018-09-04T00:05:29.575Z,14.51
2018-09-04T00:06:29.557Z,14.5
2018-09-04T00:07:29.556Z,14.59
2018-09-04T00:08:29.541Z,14.69
2018-09-04T00:09:29.528Z,14.69
2018-09-04T00:10:29.517Z,14.79
2018-09-04T00:11:29.238Z,13.92
2018-09-04T00:12:29.503Z,13.92
2018-09-04T00:13:29.483Z,13.64
2018-09-04T00:14:29.477Z,13.06
2018-09-04T00:15:29.460Z,13.06
2018-09-04T00:16:29.448Z,13.15
2018-09-04T00:17:29.438Z,12.77
2018-09-04T00:18:29.160Z,12.87
2018-09-04T00:19:29.153Z,12.59
2018-09-04T00:20:29.139Z,12.49
2018-09-04T00:21:29.395Z,12.59
2018-09-04T00:22:29.117Z,12.3
2018-09-04T00:23:29.371Z,12.39
2018-09-04T00:24:29.099Z,12.1
2018-09-04T00:25:29.352Z,11.72
2018-09-04T00:26:29.073Z,11.53
2018-09-04T00:27:29.326Z,11.62
2018-09-04T00:28:29.318Z,11.82
2018-09-04T00:29:29.041Z,11.43
2018-09-04T00:30:29.029Z,11.62
2018-09-04T00:31:29.018Z,11.72
2018-09-04T00:32:29.271Z,11.82
2018-09-04T00:33:29.257Z,11.62
2018-09-04T00:34:29.448Z,11.72
2018-09-04T00:35:29.235Z,11.72
2018-09-04T00:36:29.227Z,12.01
2018-09-04T00:37:28.948Z,12.19
2018-09-04T00:38:29.203Z,11.62
2018-09-04T00:39:29.191Z,11.53
2018-09-04T00:40:28.922Z,11.24
2018-09-04T00:41:29.172Z,11.33
2018-09-04T00:42:29.166Z,11.53
2018-09-04T00:43:29.153Z,11.43
2018-09-04T00:44:29.141Z,11.81
2018-09-04T00:45:29.123Z,11.82
2018-09-04T00:46:29.112Z,11.82
2018-09-04T00:47:29.105Z,11.71
2018-09-04T00:48:28.828Z,12.19
2018-09-04T00:49:29.081Z,12.58
2018-09-04T00:50:29.071Z,12.77
2018-09-04T00:51:28.794Z,12.87
2018-09-04T00:52:29.049Z,12.67
2018-09-04T00:53:29.042Z,12.96
2018-09-04T00:54:29.023Z,12.48
2018-09-04T00:55:29.012Z,12.87
2018-09-04T00:56:28.737Z,12.67
2018-09-04T00:57:28.987Z,12.77
2018-09-04T00:58:28.979Z,12.58
2018-09-04T00:59:28.969Z,12.77
2018-09-04T01:00:28.956Z,12.67
2018-09-04T01:01:28.716Z,13.15
2018-09-04T01:02:28.935Z,12.77
2018-09-04T01:03:28.656Z,12.67
2018-09-04T01:04:28.648Z,12.87
2018-09-04T01:05:28.969Z,12.96
2018-09-04T01:06:28.628Z,12.96
2018-09-04T01:07:28.616Z,12.87
2018-09-04T01:08:28.603Z,12.77
2018-09-04T01:09:28.592Z,12.86
2018-09-04T01:10:28.844Z,12.67
2018-09-04T01:11:28.830Z,12.67
2018-09-04T01:12:28.562Z,12.48
2018-09-04T01:13:28.810Z,12.48
2018-09-04T01:14:28.536Z,12.29
2018-09-04T01:15:28.789Z,12
2018-09-04T01:16:28.513Z,12.57
2018-09-04T01:17:28.967Z,12.29
2018-09-04T01:18:28.753Z,11.9
2018-09-04T01:19:28.743Z,11.99
2018-09-04T01:20:28.465Z,12.29
2018-09-04T01:21:28.727Z,12.19
2018-09-04T01:22:28.815Z,12.09
2018-09-04T01:23:28.439Z,11.8
2018-09-04T01:24:28.682Z,11.61
2018-09-04T01:25:28.674Z,11.71
2018-09-04T01:26:28.660Z,11.32
2018-09-04T01:27:28.652Z,11.52
2018-09-04T01:28:28.642Z,11.61
2018-09-04T01:29:28.366Z,11.23
2018-09-04T01:30:28.357Z,11.42
2018-09-04T01:31:28.605Z,10.94
2018-09-04T01:32:28.333Z,11.13
2018-09-04T01:33:28.315Z,11.23
2018-09-04T01:34:28.309Z,11.13
2018-09-04T01:35:28.560Z,10.94
2018-09-04T01:36:28.549Z,10.55
2018-09-04T01:37:28.276Z,10.27
2018-09-04T01:38:28.534Z,10.46
2018-09-04T01:39:28.245Z,10.08
2018-09-04T01:40:28.239Z,10.36
2018-09-04T01:41:28.530Z,9.79
2018-09-04T01:42:28.472Z,9.98
2018-09-04T01:43:28.466Z,10.08
2018-09-04T01:44:28.462Z,9.98
2018-09-04T01:45:28.443Z,9.5
2018-09-04T01:46:28.434Z,9.5
2018-09-04T01:47:28.425Z,9.21
2018-09-04T01:48:28.147Z,9.21
2018-09-04T01:49:28.400Z,9.31
2018-09-04T01:50:28.402Z,9.5
2018-09-04T01:51:28.111Z,9.59
2018-09-04T01:52:28.360Z,9.31
2018-09-04T01:53:28.357Z,9.21
2018-09-04T01:54:28.338Z,9.21
2018-09-04T01:55:28.328Z,9.69
2018-09-04T01:56:28.320Z,9.21
2018-09-04T01:57:28.307Z,9.22
2018-09-04T01:58:28.296Z,9.69
2018-09-04T01:59:28.280Z,9.6
2018-09-04T02:00:28.275Z,9.69
2018-09-04T02:01:28.258Z,9.69
2018-09-04T02:02:27.989Z,9.31
2018-09-04T02:03:28.236Z,9.5
2018-09-04T02:04:27.970Z,9.31
2018-09-04T02:05:28.218Z,9.59
2018-09-04T02:06:28.205Z,9.41
2018-09-04T02:07:28.189Z,9.5
2018-09-04T02:08:28.180Z,9.41
2018-09-04T02:09:28.181Z,9.41
2018-09-04T02:10:28.156Z,9.12
2018-09-04T02:11:27.886Z,9.12
2018-09-04T02:12:28.145Z,9.03
2018-09-04T02:13:28.128Z,8.73
2018-09-04T02:14:27.850Z,8.93
2018-09-04T02:15:27.835Z,8.73
2018-09-04T02:16:28.096Z,8.73
2018-09-04T02:17:28.076Z,8.83
2018-09-04T02:18:28.065Z,8.64
2018-09-04T02:19:28.073Z,8.64
2018-09-04T02:20:27.781Z,8.64
2018-09-04T02:21:28.039Z,8.93
2018-09-04T02:22:28.024Z,8.83
2018-09-04T02:23:28.007Z,9.12
2018-09-04T02:24:28.000Z,8.83
2018-09-04T02:25:27.991Z,9.12
2018-09-04T02:26:27.974Z,8.73
2018-09-04T02:27:27.974Z,8.93
2018-09-04T02:28:27.963Z,9.03
2018-09-04T02:29:27.948Z,8.83
2018-09-04T02:30:27.936Z,8.93
2018-09-04T02:31:27.916Z,8.83
2018-09-04T02:32:27.910Z,8.83
2018-09-04T02:33:27.893Z,8.54
2018-09-04T02:34:27.618Z,8.83
2018-09-04T02:35:27.609Z,8.54
2018-09-04T02:36:27.863Z,8.73
2018-09-04T02:37:27.874Z,8.54
2018-09-04T02:38:27.841Z,8.83
2018-09-04T02:39:27.827Z,8.45
2018-09-04T02:40:27.814Z,8.83
2018-09-04T02:41:27.806Z,8.54
2018-09-04T02:42:27.790Z,8.54
2018-09-04T02:43:27.780Z,8.45
2018-09-04T02:44:27.510Z,8.45
2018-09-04T02:45:27.500Z,8.45
2018-09-04T02:46:27.746Z,8.54
2018-09-04T02:47:27.733Z,8.26
2018-09-04T02:48:27.726Z,8.54
2018-09-04T02:49:27.447Z,8.64
2018-09-04T02:50:27.438Z,8.73
2018-09-04T02:51:27.690Z,8.54
2018-09-04T02:52:27.413Z,8.73
2018-09-04T02:53:27.670Z,8.54
2018-09-04T02:54:27.680Z,8.83
2018-09-04T02:55:27.648Z,8.64
2018-09-04T02:56:27.369Z,8.93
2018-09-04T02:57:27.623Z,8.45
2018-09-04T02:58:27.610Z,8.54
2018-09-04T02:59:27.599Z,8.54
2018-09-04T03:00:27.603Z,8.54
2018-09-04T03:01:27.578Z,8.54
2018-09-04T03:02:27.562Z,8.16
2018-09-04T03:03:27.556Z,7.87
2018-09-04T03:04:27.579Z,7.87
2018-09-04T03:05:27.534Z,7.59
2018-09-04T03:06:27.527Z,7.78
2018-09-04T03:07:27.518Z,7.29
2018-09-04T03:08:27.237Z,7.2
2018-09-04T03:09:27.490Z,7.29
2018-09-04T03:10:27.473Z,7.29
2018-09-04T03:11:27.202Z,7.49
2018-09-04T03:12:27.453Z,7.59
2018-09-04T03:13:27.532Z,7.59
2018-09-04T03:14:27.436Z,7.29
2018-09-04T03:15:27.154Z,7.29
2018-09-04T03:16:27.407Z,7.29
2018-09-04T03:17:27.604Z,7.1
2018-09-04T03:18:27.119Z,7.1
2018-09-04T03:19:27.376Z,7.01
2018-09-04T03:20:27.097Z,7.01
2018-09-04T03:21:27.090Z,7.2
2018-09-04T03:22:27.079Z,7.01
2018-09-04T03:23:27.329Z,7.01
2018-09-04T03:24:27.335Z,7.2
2018-09-04T03:25:27.331Z,6.91
2018-09-04T03:26:27.029Z,6.72
2018-09-04T03:27:27.287Z,6.72
2018-09-04T03:28:27.006Z,6.72
2018-09-04T03:29:26.994Z,6.82
2018-09-04T03:30:26.993Z,6.91
2018-09-04T03:31:27.239Z,6.52
2018-09-04T03:32:26.960Z,6.82
2018-09-04T03:33:27.217Z,6.62
2018-09-04T03:34:26.940Z,6.82
2018-09-04T03:35:27.189Z,6.82
2018-09-04T03:36:27.178Z,6.72
2018-09-04T03:37:26.903Z,6.72
2018-09-04T03:38:26.895Z,6.72
2018-09-04T03:39:26.885Z,6.62
2018-09-04T03:40:26.869Z,7.01
2018-09-04T03:41:27.120Z,6.82
2018-09-04T03:42:26.911Z,6.62
2018-09-04T03:43:26.836Z,7.1
2018-09-04T03:44:27.260Z,6.72
2018-09-04T03:45:26.812Z,6.52
2018-09-04T03:46:27.065Z,6.72
2018-09-04T03:47:27.051Z,7.1
2018-09-04T03:48:26.777Z,6.52
2018-09-04T03:49:26.773Z,7.1
2018-09-04T03:50:27.015Z,6.52
2018-09-04T03:51:27.012Z,6.72
2018-09-04T03:52:27.253Z,7.01
2018-09-04T03:53:26.992Z,6.91
2018-09-04T03:54:26.972Z,6.91
2018-09-04T03:55:26.697Z,7.01
2018-09-04T03:56:26.951Z,7.1
2018-09-04T03:57:26.938Z,7.1
2018-09-04T03:58:26.667Z,7.29
2018-09-04T03:59:26.656Z,7.29
2018-09-04T04:00:26.644Z,7.59
2018-09-04T04:01:27.036Z,7.59
2018-09-04T04:02:26.885Z,7.39
2018-09-04T04:03:26.873Z,7.59
2018-09-04T04:04:26.863Z,7.59
2018-09-04T04:05:26.854Z,7.68
2018-09-04T04:06:26.570Z,7.77
2018-09-04T04:07:26.563Z,7.97
2018-09-04T04:08:26.554Z,7.97
2018-09-04T04:09:26.806Z,8.35
2018-09-04T04:10:26.787Z,8.06
2018-09-04T04:11:26.787Z,8.15
2018-09-04T04:12:26.767Z,8.06
2018-09-04T04:13:26.497Z,8.06
2018-09-04T04:14:26.749Z,8.06
2018-09-04T04:15:26.740Z,8.06
2018-09-04T04:16:26.464Z,8.06
2018-09-04T04:17:26.709Z,8.15
2018-09-04T04:18:26.705Z,8.25
2018-09-04T04:19:26.690Z,8.35
2018-09-04T04:20:26.684Z,8.15
2018-09-04T04:21:26.666Z,7.97
2018-09-04T04:22:26.653Z,8.54
2018-09-04T04:23:26.377Z,8.54
2018-09-04T04:24:26.643Z,8.54
2018-09-04T04:25:26.620Z,8.54
2018-09-04T04:26:26.609Z,8.54
2018-09-04T04:27:26.596Z,8.73
2018-09-04T04:28:26.589Z,8.25
2018-09-04T04:29:26.578Z,8.15
2018-09-04T04:30:26.571Z,7.96
2018-09-04T04:31:26.556Z,8.15
2018-09-04T04:32:26.547Z,8.73
2018-09-04T04:33:26.536Z,8.44
2018-09-04T04:34:26.520Z,8.44
2018-09-04T04:35:26.241Z,8.34
2018-09-04T04:36:26.500Z,8.34
2018-09-04T04:37:26.222Z,8.53
2018-09-04T04:38:26.469Z,8.53
2018-09-04T04:39:26.463Z,8.53
2018-09-04T04:40:26.181Z,8.34
2018-09-04T04:41:26.431Z,8.53
2018-09-04T04:42:26.160Z,8.25
2018-09-04T04:43:26.418Z,8.44
2018-09-04T04:44:26.138Z,8.44
2018-09-04T04:45:26.403Z,8.44
2018-09-04T04:46:26.379Z,8.53
2018-09-04T04:47:26.098Z,8.63
2018-09-04T04:48:26.542Z,8.73
2018-09-04T04:49:26.077Z,8.44
2018-09-04T04:50:26.063Z,8.63
2018-09-04T04:51:26.052Z,8.44
2018-09-04T04:52:26.351Z,8.83
2018-09-04T04:53:26.032Z,8.73
2018-09-04T04:54:26.019Z,8.73
2018-09-04T04:55:26.005Z,8.73
2018-09-04T04:56:25.997Z,8.73
2018-09-04T04:57:26.250Z,8.83
2018-09-04T04:58:26.241Z,8.92
2018-09-04T04:59:26.224Z,8.73
2018-09-04T05:00:26.450Z,8.73
2018-09-04T05:01:26.202Z,9.11
2018-09-04T05:02:25.921Z,9.11
2018-09-04T05:03:26.181Z,8.83
2018-09-04T05:04:25.902Z,8.92
2018-09-04T05:05:25.887Z,8.92
2018-09-04T05:06:26.134Z,8.73
2018-09-04T05:07:26.131Z,8.73
2018-09-04T05:08:26.115Z,8.63
2018-09-04T05:09:26.106Z,8.63
2018-09-04T05:10:26.103Z,9.01
2018-09-04T05:11:26.174Z,8.92
2018-09-04T05:12:26.098Z,8.73
2018-09-04T05:13:25.803Z,8.63
2018-09-04T05:14:26.045Z,8.44
2018-09-04T05:15:26.032Z,8.44
2018-09-04T05:16:25.760Z,8.34
2018-09-04T05:17:26.008Z,8.63
2018-09-04T05:18:25.732Z,8.63
2018-09-04T05:19:25.982Z,8.44
2018-09-04T05:20:25.708Z,8.63
2018-09-04T05:21:25.696Z,8.63
2018-09-04T05:22:25.975Z,8.63
2018-09-04T05:23:26.137Z,8.44
2018-09-04T05:24:25.661Z,8.63
2018-09-04T05:25:25.913Z,8.34
2018-09-04T05:26:25.640Z,8.15
2018-09-04T05:27:25.891Z,7.96
2018-09-04T05:28:25.876Z,8.15
2018-09-04T05:29:25.940Z,7.96
2018-09-04T05:30:25.597Z,7.96
2018-09-04T05:31:25.842Z,8.53
2018-09-04T05:32:25.832Z,7.96
2018-09-04T05:33:25.822Z,8.15
2018-09-04T05:34:25.809Z,8.25
2018-09-04T05:35:25.530Z,8.06
2018-09-04T05:36:25.520Z,7.96
2018-09-04T05:37:25.776Z,7.96
2018-09-04T05:38:25.762Z,7.77
2018-09-04T05:39:25.497Z,7.77
2018-09-04T05:40:25.733Z,7.67
2018-09-04T05:41:25.733Z,7.57
2018-09-04T05:42:25.446Z,7.57
2018-09-04T05:43:25.705Z,7.29
2018-09-04T05:44:25.690Z,7.29
2018-09-04T05:45:25.671Z,7.57
2018-09-04T05:46:25.718Z,7.67
2018-09-04T05:47:25.392Z,7.48
2018-09-04T05:48:25.377Z,7.48
2018-09-04T05:49:25.638Z,7.39
2018-09-04T05:50:25.355Z,7
2018-09-04T05:51:25.389Z,7.1
2018-09-04T05:52:25.334Z,7.01
2018-09-04T05:53:25.315Z,6.91
2018-09-04T05:54:25.578Z,6.81
2018-09-04T05:55:25.297Z,6.52
2018-09-04T05:56:25.556Z,6.81
2018-09-04T05:57:25.274Z,6.71
2018-09-04T05:58:25.521Z,6.62
2018-09-04T05:59:25.512Z,6.62
2018-09-04T06:00:25.503Z,6.71
2018-09-04T06:01:25.489Z,6.71
2018-09-04T06:02:25.478Z,6.71
2018-09-04T06:03:25.200Z,6.71
2018-09-04T06:04:25.455Z,7.01
2018-09-04T06:05:25.441Z,7.2
2018-09-04T06:06:25.434Z,6.62
2018-09-04T06:07:25.425Z,6.52
2018-09-04T06:08:25.415Z,6.71
2018-09-04T06:09:25.136Z,7.01
2018-09-04T06:10:25.120Z,7.01
2018-09-04T06:11:25.107Z,6.81
2018-09-04T06:12:25.359Z,7.01
2018-09-04T06:13:25.082Z,6.91
2018-09-04T06:14:25.340Z,6.62
2018-09-04T06:15:25.063Z,6.71
2018-09-04T06:16:25.314Z,6.43
2018-09-04T06:17:25.037Z,6.71
2018-09-04T06:18:25.295Z,6.71
2018-09-04T06:19:25.291Z,6.81
2018-09-04T06:20:25.269Z,6.43
2018-09-04T06:21:24.991Z,6.43
2018-09-04T06:22:24.984Z,6.24
2018-09-04T06:23:24.972Z,6.24
2018-09-04T06:24:25.226Z,6.04
2018-09-04T06:25:25.213Z,6.24
2018-09-04T06:26:25.204Z,6.14
2018-09-04T06:27:24.926Z,6.04
2018-09-04T06:28:25.185Z,6.04
2018-09-04T06:29:25.276Z,6.24
2018-09-04T06:30:25.151Z,6.05
2018-09-04T06:31:25.140Z,5.85
2018-09-04T06:32:24.865Z,5.66
2018-09-04T06:33:24.862Z,5.76
2018-09-04T06:34:25.119Z,5.95
2018-09-04T06:35:25.091Z,5.57
2018-09-04T06:36:25.111Z,5.85
2018-09-04T06:37:25.101Z,5.95
2018-09-04T06:38:25.065Z,5.76
2018-09-04T06:39:24.791Z,5.57
2018-09-04T06:40:25.059Z,5.95
2018-09-04T06:41:25.036Z,5.85
2018-09-04T06:42:25.021Z,5.85
2018-09-04T06:43:25.006Z,5.66
2018-09-04T06:44:24.992Z,5.76
2018-09-04T06:45:24.718Z,6.15
2018-09-04T06:46:24.728Z,6.05
2018-09-04T06:47:24.966Z,6.05
2018-09-04T06:48:24.953Z,5.85
2018-09-04T06:49:24.937Z,5.76
2018-09-04T06:50:24.923Z,6.24
2018-09-04T06:51:24.911Z,5.95
2018-09-04T06:52:24.910Z,6.34
2018-09-04T06:53:24.629Z,6.34
2018-09-04T06:54:24.879Z,6.05
2018-09-04T06:55:24.603Z,6.15
2018-09-04T06:56:25.057Z,6.15
2018-09-04T06:57:24.847Z,6.24
2018-09-04T06:58:24.837Z,5.86
2018-09-04T06:59:24.824Z,6.24
2018-09-04T07:00:24.811Z,6.24
2018-09-04T07:01:24.799Z,6.43
2018-09-04T07:02:24.788Z,6.43
2018-09-04T07:03:24.778Z,6.43
2018-09-04T07:04:24.505Z,6.43
2018-09-04T07:05:24.759Z,6.82
2018-09-04T07:06:24.746Z,6.72
2018-09-04T07:07:24.740Z,6.72
2018-09-04T07:08:24.723Z,7.01
2018-09-04T07:09:24.713Z,7.01
2018-09-04T07:10:24.697Z,7.01
2018-09-04T07:11:24.686Z,7.11
2018-09-04T07:12:24.414Z,7.11
2018-09-04T07:13:24.668Z,6.82
2018-09-04T07:14:24.662Z,7.4
2018-09-04T07:15:24.646Z,7.5
2018-09-04T07:16:24.635Z,7.59
2018-09-04T07:17:24.622Z,7.88
2018-09-04T07:18:24.351Z,7.98
2018-09-04T07:19:24.338Z,8.36
2018-09-04T07:20:24.330Z,8.55
2018-09-04T07:21:24.588Z,8.56
2018-09-04T07:22:24.315Z,9.03
2018-09-04T07:23:24.764Z,8.84
2018-09-04T07:24:24.374Z,8.75
2018-09-04T07:25:24.280Z,8.75
2018-09-04T07:26:24.531Z,8.46
2018-09-04T07:27:24.521Z,8.75
2018-09-04T07:28:24.508Z,9.42
2018-09-04T07:29:24.239Z,9.23
2018-09-04T07:30:24.487Z,9.52
2018-09-04T07:31:24.478Z,9.23
2018-09-04T07:32:24.469Z,9.52
2018-09-04T07:33:24.456Z,10
2018-09-04T07:34:24.191Z,10
2018-09-04T07:35:24.442Z,10.29
2018-09-04T07:36:24.184Z,10.48
2018-09-04T07:37:24.421Z,10.48
2018-09-04T07:38:24.403Z,10.39
2018-09-04T07:39:24.409Z,10.97
2018-09-04T07:40:24.387Z,11.35
2018-09-04T07:41:24.111Z,11.25
2018-09-04T07:42:24.102Z,11.07
2018-09-04T07:43:24.356Z,11.64
2018-09-04T07:44:24.080Z,11.64
2018-09-04T07:45:24.336Z,11.54
2018-09-04T07:46:24.061Z,11.64
2018-09-04T07:47:24.317Z,12.22
2018-09-04T07:48:24.358Z,12.89
2018-09-04T07:49:24.030Z,13.18
2018-09-04T07:50:24.022Z,12.99
2018-09-04T07:51:24.272Z,12.99
2018-09-04T07:52:24.259Z,12.89
2018-09-04T07:53:24.258Z,12.89
2018-09-04T07:54:24.240Z,12.51
2018-09-04T07:55:24.234Z,12.41
2018-09-04T07:56:23.964Z,12.6
2018-09-04T07:57:24.222Z,13.18
2018-09-04T07:58:24.206Z,13.57
2018-09-04T07:59:24.193Z,15.21
2018-09-04T08:00:23.974Z,16.08
2018-09-04T08:01:24.181Z,17.52
2018-09-04T08:02:24.165Z,18.1
2018-09-04T08:03:23.891Z,19.06
2018-09-04T08:04:24.145Z,18.77
2018-09-04T08:05:24.139Z,18.68
2018-09-04T08:06:24.125Z,18.77
2018-09-04T08:07:24.125Z,19.64
2018-09-04T08:08:24.119Z,20.5
2018-09-04T08:09:23.836Z,20.31
2018-09-04T08:10:24.092Z,19.84
2018-09-04T08:11:24.095Z,19.45
2018-09-04T08:12:24.079Z,19.45
2018-09-04T08:13:24.068Z,19.15
2018-09-04T08:14:24.049Z,19.17
2018-09-04T08:15:24.043Z,20.03
2018-09-04T08:16:24.181Z,21.67
2018-09-04T08:17:24.028Z,21.67
2018-09-04T08:18:23.748Z,21.38
2018-09-04T08:19:24.007Z,21.38
2018-09-04T08:20:24.145Z,23.02
2018-09-04T08:21:23.724Z,22.34
2018-09-04T08:22:23.712Z,21.48
2018-09-04T08:23:23.964Z,21.48
2018-09-04T08:24:23.695Z,23.4
2018-09-04T08:25:23.686Z,23.9
2018-09-04T08:26:23.939Z,22.93
2018-09-04T08:27:23.667Z,22.36
2018-09-04T08:28:23.925Z,22.45
2018-09-04T08:29:23.650Z,23.22
2018-09-04T08:30:23.906Z,23.99
2018-09-04T08:31:23.898Z,24.28
2018-09-04T08:32:23.886Z,24.38
2018-09-04T08:33:24.121Z,24.76
2018-09-04T08:34:23.869Z,25.63
2018-09-04T08:35:23.594Z,26.42
2018-09-04T08:36:23.591Z,26.7
2018-09-04T08:37:23.839Z,27.86
2018-09-04T08:38:23.836Z,29.5
2018-09-04T08:39:23.818Z,29.5
2018-09-04T08:40:23.822Z,30.94
2018-09-04T08:41:23.543Z,32.68
2018-09-04T08:42:23.540Z,35.96
2018-09-04T08:43:23.800Z,35.1
2018-09-04T08:44:23.517Z,34.03
2018-09-04T08:45:23.773Z,33.55
2018-09-04T08:46:23.768Z,33.66
2018-09-04T08:47:23.875Z,34.92
2018-09-04T08:48:23.760Z,35.11
2018-09-04T08:49:23.742Z,35.5
2018-09-04T08:50:23.762Z,35.71
2018-09-04T08:51:23.728Z,36.87
2018-09-04T08:52:23.722Z,38.89
2018-09-04T08:53:23.854Z,42.75
2018-09-04T08:54:23.699Z,43.52
2018-09-04T08:55:23.499Z,46.42
2018-09-04T08:56:23.425Z,45.75
2018-09-04T08:57:23.414Z,44.87
2018-09-04T08:58:23.730Z,46.64
2018-09-04T08:59:23.662Z,50.31
2018-09-04T09:00:23.710Z,51.46
2018-09-04T09:01:23.383Z,53.69
2018-09-04T09:02:23.637Z,52.91
2018-09-04T09:03:23.372Z,52.53
2018-09-04T09:04:23.626Z,52.81
2018-09-04T09:05:23.684Z,53.69
2018-09-04T09:06:23.346Z,53.11
2018-09-04T09:07:23.338Z,51.07
2018-09-04T09:08:23.615Z,50.69
2018-09-04T09:09:23.322Z,50.5
2018-09-04T09:10:23.318Z,50.21
2018-09-04T09:11:23.576Z,48.86
2018-09-04T09:12:23.566Z,48.66
2018-09-04T09:13:23.558Z,49.24
2018-09-04T09:14:23.286Z,49.05
2018-09-04T09:15:23.543Z,47.41
2018-09-04T09:16:23.268Z,48.95
2018-09-04T09:17:23.263Z,51.56
2018-09-04T09:18:23.531Z,53.78
2018-09-04T09:19:23.251Z,54.55
2018-09-04T09:20:23.244Z,53.78
2018-09-04T09:21:23.238Z,53.3
2018-09-04T09:22:23.496Z,53.39
2018-09-04T09:23:23.684Z,54.68
2018-09-04T09:24:23.222Z,58.32
2018-09-04T09:25:23.468Z,59.6
2018-09-04T09:26:23.197Z,59.58
2018-09-04T09:27:23.193Z,63.85
2018-09-04T09:28:23.442Z,62.76
2018-09-04T09:29:23.441Z,62.28
2018-09-04T09:30:23.164Z,63.95
2018-09-04T09:31:23.427Z,63.66
2018-09-04T09:32:23.424Z,63.66
2018-09-04T09:33:23.413Z,63.56
2018-09-04T09:34:23.413Z,64.72
2018-09-04T09:35:23.133Z,62.5
2018-09-04T09:36:23.129Z,61.73
2018-09-04T09:37:23.395Z,61.73
2018-09-04T09:38:23.373Z,64.63
2018-09-04T09:39:23.104Z,65.01
2018-09-04T09:40:23.364Z,65.88
2018-09-04T09:41:23.086Z,65.01
2018-09-04T09:42:23.078Z,65.11
2018-09-04T09:43:23.074Z,66.36
2018-09-04T09:44:23.066Z,70.36
2018-09-04T09:45:23.328Z,68.52
2018-09-04T09:46:23.318Z,66.69
2018-09-04T09:47:23.312Z,67.27
2018-09-04T09:48:23.041Z,70.75
2018-09-04T09:49:23.299Z,77.13
2018-09-04T09:50:23.302Z,76.68
2018-09-04T09:51:23.282Z,79.1
2018-09-04T09:52:23.342Z,77.71
2018-09-04T09:53:23.280Z,76.55
2018-09-04T09:54:22.999Z,76.87
2018-09-04T09:55:23.258Z,75.48
2018-09-04T09:56:23.075Z,80.46
2018-09-04T09:57:23.295Z,80.07
2018-09-04T09:58:23.243Z,77.36
2018-09-04T09:59:23.417Z,77.45
2018-09-04T10:00:22.960Z,77.45
2018-09-04T10:01:23.220Z,85.29
2018-09-04T10:02:22.956Z,81.52
2018-09-04T10:03:23.205Z,79.68
2018-09-04T10:04:22.934Z,83.45
2018-09-04T10:05:23.220Z,87.32
2018-09-04T10:06:23.186Z,88.87
2018-09-04T10:07:23.242Z,90.94
2018-09-04T10:08:23.197Z,94.13
2018-09-04T10:09:23.168Z,91.72
2018-09-04T10:10:22.905Z,92.2
2018-09-04T10:11:23.210Z,91.91
2018-09-04T10:12:22.885Z,90.36
2018-09-04T10:13:23.142Z,90.6
2018-09-04T10:14:22.880Z,97.76
2018-09-04T10:15:23.134Z,97.47
2018-09-04T10:16:23.132Z,96.75
2018-09-04T10:17:23.124Z,99.99
2018-09-04T10:18:22.852Z,99.99
2018-09-04T10:19:23.107Z,99.99
2018-09-04T10:20:23.104Z,99.99
2018-09-04T10:21:23.259Z,99.99
2018-09-04T10:22:23.094Z,99.99
2018-09-04T10:23:23.087Z,99.99
2018-09-04T10:24:23.081Z,99.99
2018-09-04T10:25:23.070Z,99.99
2018-09-04T10:26:23.108Z,99.99
2018-09-04T10:27:23.112Z,99.99
2018-09-04T10:28:23.062Z,99.99
2018-09-04T10:29:23.060Z,99.99
2018-09-04T10:30:23.045Z,99.99
2018-09-04T10:31:22.777Z,99.99
2018-09-04T10:32:23.040Z,99.99
2018-09-04T10:33:23.028Z,99.99
2018-09-04T10:34:23.022Z,99.99
2018-09-04T10:35:23.015Z,99.99
2018-09-04T10:36:22.843Z,99.99
2018-09-04T10:37:23.003Z,99.99
2018-09-04T10:38:23.004Z,99.99
2018-09-04T10:39:22.998Z,99.99
2018-09-04T10:40:22.998Z,99.99
2018-09-04T10:41:22.985Z,99.99
2018-09-04T10:42:22.979Z,99.99
2018-09-04T10:43:22.718Z,99.99
2018-09-04T10:44:22.791Z,99.99
2018-09-04T10:45:22.970Z,99.99
2018-09-04T10:46:22.960Z,99.99
2018-09-04T10:47:22.957Z,99.99
2018-09-04T10:48:22.692Z,99.99
2018-09-04T10:49:22.948Z,99.99
2018-09-04T10:50:22.944Z,99.99
2018-09-04T10:51:22.942Z,99.99
2018-09-04T10:52:22.668Z,99.99
2018-09-04T10:53:22.929Z,99.99
2018-09-04T10:54:22.660Z,99.99
2018-09-04T10:55:22.656Z,99.99
2018-09-04T10:56:22.651Z,99.99
2018-09-04T10:57:22.909Z,99.99
2018-09-04T10:58:22.643Z,99.99
2018-09-04T10:59:22.906Z,99.99
2018-09-04T11:00:22.900Z,99.99
2018-09-04T11:01:22.893Z,99.99
2018-09-04T11:02:23.087Z,99.99
2018-09-04T11:03:22.890Z,99.99
2018-09-04T11:04:22.617Z,99.99
2018-09-04T11:05:22.876Z,99.99
2018-09-04T11:06:22.871Z,99.99
2018-09-04T11:07:22.610Z,99.99
2018-09-04T11:08:22.871Z,99.99
2018-09-04T11:09:22.943Z,99.99
2018-09-04T11:10:22.864Z,99.99
2018-09-04T11:11:22.861Z,99.99
2018-09-04T11:12:22.588Z,99.99
2018-09-04T11:13:22.587Z,99.99
2018-09-04T11:14:22.847Z,99.99
2018-09-04T11:15:22.583Z,99.99
2018-09-04T11:16:22.839Z,99.99
2018-09-04T11:17:22.841Z,99.99
2018-09-04T11:18:22.571Z,99.99
2018-09-04T11:19:22.838Z,99.99
2018-09-04T11:20:22.569Z,99.99
2018-09-04T11:21:22.829Z,99.99
2018-09-04T11:22:22.565Z,99.99
2018-09-04T11:23:23.032Z,98.29
2018-09-04T11:24:22.829Z,99.12
2018-09-04T11:25:22.565Z,99.37
2018-09-04T11:26:22.836Z,89.72
2018-09-04T11:27:22.828Z,88.01
2018-09-04T11:28:22.828Z,92.2
2018-09-04T11:29:22.834Z,93.37
2018-09-04T11:30:22.832Z,92.14
2018-09-04T11:31:22.837Z,86.73
2018-09-04T11:32:22.845Z,84.43
2018-09-04T11:33:22.570Z,80.27
2018-09-04T11:34:22.841Z,82.26
2018-09-04T11:35:22.840Z,84.51
2018-09-04T11:36:22.578Z,79.33
2018-09-04T11:37:22.584Z,79.27
2018-09-04T11:38:22.850Z,79.32
2018-09-04T11:39:22.855Z,76.61
2018-09-04T11:40:22.597Z,73.71
2018-09-04T11:41:22.868Z,73.32
2018-09-04T11:42:22.601Z,73.46
2018-09-04T11:43:22.867Z,72.86
2018-09-04T11:44:22.874Z,71.23
2018-09-04T11:45:22.611Z,69.86
2018-09-04T11:46:22.615Z,71.23
2018-09-04T11:47:22.892Z,70.55
2018-09-04T11:48:22.891Z,71.4
2018-09-04T11:49:22.898Z,69.57
2018-09-04T11:50:22.912Z,69.9
2018-09-04T11:51:22.903Z,70.12
2018-09-04T11:52:22.704Z,71.11
2018-09-04T11:53:22.911Z,69.83
2018-09-04T11:54:22.659Z,69.27
2018-09-04T11:55:22.662Z,70.45
2018-09-04T11:56:22.942Z,71.14
2018-09-04T11:57:22.938Z,69.08
2018-09-04T11:58:22.972Z,69.76
2018-09-04T11:59:22.953Z,69.7
2018-09-04T12:00:22.955Z,68.72
2018-09-04T12:01:22.699Z,68.52
2018-09-04T12:02:22.966Z,67.15
2018-09-04T12:03:22.717Z,68.3
2018-09-04T12:04:22.983Z,69.96
2018-09-04T12:05:22.978Z,68.79
2018-09-04T12:06:22.997Z,68.59
2018-09-04T12:07:22.998Z,68.72
2018-09-04T12:08:23.006Z,67.94
2018-09-04T12:09:22.737Z,66.11
2018-09-04T12:10:22.746Z,65.98
2018-09-04T12:11:23.020Z,66.56
2018-09-04T12:12:23.182Z,66.86
2018-09-04T12:13:23.023Z,66.37
2018-09-04T12:14:23.028Z,67.32
2018-09-04T12:15:23.034Z,69.96
2018-09-04T12:16:23.039Z,71.3
2018-09-04T12:17:22.776Z,72.04
2018-09-04T12:18:23.057Z,72.04
2018-09-04T12:19:23.260Z,73.5
2018-09-04T12:20:23.054Z,73.08
2018-09-04T12:21:22.887Z,74.84
2018-09-04T12:22:23.058Z,75.78
2018-09-04T12:23:23.060Z,74.32
2018-09-04T12:24:22.798Z,73.54
2018-09-04T12:25:22.800Z,74.18
2018-09-04T12:26:23.068Z,74.67
2018-09-04T12:27:23.209Z,74.87
2018-09-04T12:28:23.069Z,74.96
2018-09-04T12:29:22.804Z,76.58
2018-09-04T12:30:23.069Z,75.8
2018-09-04T12:31:22.808Z,76.19
2018-09-04T12:32:23.073Z,77.36
2018-09-04T12:33:22.811Z,77.81
2018-09-04T12:34:23.073Z,77.52
2018-09-04T12:35:22.810Z,77.87
2018-09-04T12:36:23.096Z,78.36
2018-09-04T12:37:22.808Z,77.78
2018-09-04T12:38:23.074Z,78.65
2018-09-04T12:39:23.076Z,79.24
2018-09-04T12:40:23.069Z,82.94
2018-09-04T12:41:23.072Z,82.26
2018-09-04T12:42:23.144Z,82.55
2018-09-04T12:43:23.067Z,80.7
2018-09-04T12:44:23.167Z,80.6
2018-09-04T12:45:23.068Z,82.06
2018-09-04T12:46:22.800Z,82.69
2018-09-04T12:47:22.801Z,82.4
2018-09-04T12:48:23.098Z,80.15
2018-09-04T12:49:22.806Z,76.87
2018-09-04T12:50:22.800Z,76.39
2018-09-04T12:51:22.797Z,76.42
2018-09-04T12:52:23.062Z,75.2
2018-09-04T12:53:23.065Z,75.43
2018-09-04T12:54:22.795Z,74.58
2018-09-04T12:55:23.065Z,71.03
2018-09-04T12:56:23.057Z,68.23
2018-09-04T12:57:23.066Z,68.43
2018-09-04T12:58:22.804Z,69.11
2018-09-04T12:59:22.798Z,68.52
2018-09-04T13:00:23.069Z,67.19
2018-09-04T13:01:22.802Z,68.69
2018-09-04T13:02:22.813Z,65.29
2018-09-04T13:03:23.087Z,64.93
2018-09-04T13:04:23.078Z,64.47
2018-09-04T13:05:22.817Z,63.62
2018-09-04T13:06:23.085Z,64.11